sensor_id;sensor_type;location;lat;lon;timestamp;temperature;humidity
34640;DHT22;22600;48.186;11.526;2023-05-14T00:01:30;23.80;54.00
34640;DHT22;22600;48.186;11.526;2023-05-14T00:03:55;23.80;53.80
34640;DHT22;22600;48.186;11.526;2023-05-14T00:06:21;23.80;53.90
34640;DHT22;22600;48.186;11.526;2023-05-14T00:08:46;23.80;53.90
34640;DHT22;22600;48.186;11.526;2023-05-14T00:11:12;23.80;53.80
34640;DHT22;22600;48.186;11.526;2023-05-14T00:13:37;23.90;53.80
34640;DHT22;22600;48.186;11.526;2023-05-14T00:16:03;26.00;55.00
34640;DHT22;22600;48.186;11.526;2023-05-14T00:18:28;23.80;53.90
34640;DHT22;22600;48.186;11.526;2023-05-14T00:20:54;23.80;53.80
34640;DHT22;22600;48.186;11.526;2023-05-14T00:23:20;23.80;53.60
34640;DHT22;22600;48.186;11.526;2023-05-14T00:25:45;23.80;53.50
34640;DHT22;22600;48.186;11.526;2023-05-14T00:28:11;23.80;53.60
34640;DHT22;22600;48.186;11.526;2023-05-14T00:30:36;23.80;53.50
34640;DHT22;22600;48.186;11.526;2023-05-14T00:33:02;23.80;53.50
34640;DHT22;22600;48.186;11.526;2023-05-14T00:35:27;23.80;53.50
34640;DHT22;22600;48.186;11.526;2023-05-14T00:37:53;23.80;53.50
34640;DHT22;22600;48.186;11.526;2023-05-14T00:40:19;23.80;53.50
34640;DHT22;22600;48.186;11.526;2023-05-14T00:42:45;23.80;53.50
34640;DHT22;22600;48.186;11.526;2023-05-14T00:45:10;23.70;53.40
34640;DHT22;22600;48.186;11.526;2023-05-14T00:47:36;23.80;53.50
34640;DHT22;22600;48.186;11.526;2023-05-14T00:50:03;23.70;53.40
34640;DHT22;22600;48.186;11.526;2023-05-14T00:52:29;23.80;53.40
34640;DHT22;22600;48.186;11.526;2023-05-14T00:54:55;23.70;53.40
34640;DHT22;22600;48.186;11.526;2023-05-14T00:57:21;23.80;53.50
34640;DHT22;22600;48.186;11.526;2023-05-14T00:59:46;23.70;53.40
34640;DHT22;22600;48.186;11.526;2023-05-14T01:02:12;23.70;53.40
34640;DHT22;22600;48.186;11.526;2023-05-14T01:04:37;23.70;53.50
34640;DHT22;22600;48.186;11.526;2023-05-14T01:09:31;23.70;53.50
34640;DHT22;22600;48.186;11.526;2023-05-14T01:14:54;23.70;53.50
34640;DHT22;22600;48.186;11.526;2023-05-14T01:17:21;23.70;53.40
34640;DHT22;22600;48.186;11.526;2023-05-14T01:19:47;23.70;53.40
34640;DHT22;22600;48.186;11.526;2023-05-14T01:22:12;25.60;54.40
34640;DHT22;22600;48.186;11.526;2023-05-14T01:24:38;23.70;53.40
34640;DHT22;22600;48.186;11.526;2023-05-14T01:29:30;23.70;53.40
34640;DHT22;22600;48.186;11.526;2023-05-14T01:31:57;23.70;53.30
34640;DHT22;22600;48.186;11.526;2023-05-14T01:34:25;23.70;53.30
34640;DHT22;22600;48.186;11.526;2023-05-14T01:36:52;23.70;53.40
34640;DHT22;22600;48.186;11.526;2023-05-14T01:39:18;26.00;54.60
34640;DHT22;22600;48.186;11.526;2023-05-14T01:41:44;23.70;53.30
34640;DHT22;22600;48.186;11.526;2023-05-14T01:44:11;23.70;53.40
34640;DHT22;22600;48.186;11.526;2023-05-14T01:46:36;23.70;53.30
34640;DHT22;22600;48.186;11.526;2023-05-14T01:49:02;23.70;53.30
34640;DHT22;22600;48.186;11.526;2023-05-14T01:51:27;23.70;53.30
34640;DHT22;22600;48.186;11.526;2023-05-14T01:53:53;23.80;53.40
34640;DHT22;22600;48.186;11.526;2023-05-14T01:56:19;26.20;54.60
34640;DHT22;22600;48.186;11.526;2023-05-14T01:58:46;23.70;53.30
34640;DHT22;22600;48.186;11.526;2023-05-14T02:01:11;23.70;53.30
34640;DHT22;22600;48.186;11.526;2023-05-14T02:03:37;23.70;53.20
34640;DHT22;22600;48.186;11.526;2023-05-14T02:06:02;23.70;53.20
34640;DHT22;22600;48.186;11.526;2023-05-14T02:08:28;23.70;53.20
34640;DHT22;22600;48.186;11.526;2023-05-14T02:10:53;23.70;53.10
34640;DHT22;22600;48.186;11.526;2023-05-14T02:13:18;25.90;54.30
34640;DHT22;22600;48.186;11.526;2023-05-14T02:15:44;23.70;53.10
34640;DHT22;22600;48.186;11.526;2023-05-14T02:18:09;23.70;53.00
34640;DHT22;22600;48.186;11.526;2023-05-14T02:20:35;23.70;53.10
34640;DHT22;22600;48.186;11.526;2023-05-14T02:23:00;23.80;53.00
34640;DHT22;22600;48.186;11.526;2023-05-14T02:25:26;23.70;53.00
34640;DHT22;22600;48.186;11.526;2023-05-14T02:27:51;23.70;53.00
34640;DHT22;22600;48.186;11.526;2023-05-14T02:30:17;26.20;54.40
34640;DHT22;22600;48.186;11.526;2023-05-14T02:32:42;23.70;53.00
34640;DHT22;22600;48.186;11.526;2023-05-14T02:35:08;23.70;53.10
34640;DHT22;22600;48.186;11.526;2023-05-14T02:37:33;23.70;53.10
34640;DHT22;22600;48.186;11.526;2023-05-14T02:39:59;23.70;53.10
34640;DHT22;22600;48.186;11.526;2023-05-14T02:42:24;23.70;53.10
34640;DHT22;22600;48.186;11.526;2023-05-14T02:44:51;23.70;53.20
34640;DHT22;22600;48.186;11.526;2023-05-14T02:47:17;25.60;54.20
34640;DHT22;22600;48.186;11.526;2023-05-14T02:49:42;23.70;53.20
34640;DHT22;22600;48.186;11.526;2023-05-14T02:52:07;23.70;53.20
34640;DHT22;22600;48.186;11.526;2023-05-14T02:54:33;23.70;53.20
34640;DHT22;22600;48.186;11.526;2023-05-14T02:56:59;23.70;53.20
34640;DHT22;22600;48.186;11.526;2023-05-14T02:59:24;23.60;53.20
34640;DHT22;22600;48.186;11.526;2023-05-14T03:01:49;23.70;53.20
34640;DHT22;22600;48.186;11.526;2023-05-14T03:04:15;27.10;55.10
34640;DHT22;22600;48.186;11.526;2023-05-14T03:06:40;23.70;53.20
34640;DHT22;22600;48.186;11.526;2023-05-14T03:09:06;23.60;53.10
34640;DHT22;22600;48.186;11.526;2023-05-14T03:11:32;23.70;53.20
34640;DHT22;22600;48.186;11.526;2023-05-14T03:13:57;23.70;53.00
34640;DHT22;22600;48.186;11.526;2023-05-14T03:16:22;23.60;52.90
34640;DHT22;22600;48.186;11.526;2023-05-14T03:18:48;23.60;52.90
34640;DHT22;22600;48.186;11.526;2023-05-14T03:21:13;24.90;53.50
34640;DHT22;22600;48.186;11.526;2023-05-14T03:23:39;23.70;52.90
34640;DHT22;22600;48.186;11.526;2023-05-14T03:26:05;23.70;52.90
34640;DHT22;22600;48.186;11.526;2023-05-14T03:28:30;23.60;52.90
34640;DHT22;22600;48.186;11.526;2023-05-14T03:30:56;23.70;52.80
34640;DHT22;22600;48.186;11.526;2023-05-14T03:33:21;23.60;52.80
34640;DHT22;22600;48.186;11.526;2023-05-14T03:35:47;23.60;52.80
34640;DHT22;22600;48.186;11.526;2023-05-14T03:38:13;24.50;53.10
34640;DHT22;22600;48.186;11.526;2023-05-14T03:40:38;23.50;52.70
34640;DHT22;22600;48.186;11.526;2023-05-14T03:43:04;23.60;52.70
34640;DHT22;22600;48.186;11.526;2023-05-14T03:45:29;23.60;52.70
34640;DHT22;22600;48.186;11.526;2023-05-14T03:47:55;23.60;52.80
34640;DHT22;22600;48.186;11.526;2023-05-14T03:50:20;23.60;52.80
34640;DHT22;22600;48.186;11.526;2023-05-14T03:52:49;23.60;52.80
34640;DHT22;22600;48.186;11.526;2023-05-14T03:55:17;26.50;54.40
34640;DHT22;22600;48.186;11.526;2023-05-14T03:57:43;23.70;52.80
34640;DHT22;22600;48.186;11.526;2023-05-14T04:00:08;23.60;52.80
34640;DHT22;22600;48.186;11.526;2023-05-14T04:02:34;23.60;52.80
34640;DHT22;22600;48.186;11.526;2023-05-14T04:04:59;23.60;53.40
34640;DHT22;22600;48.186;11.526;2023-05-14T04:07:25;23.70;52.90
34640;DHT22;22600;48.186;11.526;2023-05-14T04:09:50;23.60;52.60
34640;DHT22;22600;48.186;11.526;2023-05-14T04:12:16;27.10;54.70
34640;DHT22;22600;48.186;11.526;2023-05-14T04:14:41;23.60;52.70
34640;DHT22;22600;48.186;11.526;2023-05-14T04:17:07;23.60;52.80
34640;DHT22;22600;48.186;11.526;2023-05-14T04:19:32;23.60;52.70
34640;DHT22;22600;48.186;11.526;2023-05-14T04:21:58;23.60;52.90
34640;DHT22;22600;48.186;11.526;2023-05-14T04:24:23;23.60;52.80
34640;DHT22;22600;48.186;11.526;2023-05-14T04:26:49;23.60;52.70
34640;DHT22;22600;48.186;11.526;2023-05-14T04:29:14;23.50;52.70
34640;DHT22;22600;48.186;11.526;2023-05-14T04:31:39;23.60;52.80
34640;DHT22;22600;48.186;11.526;2023-05-14T04:34:06;23.60;52.70
34640;DHT22;22600;48.186;11.526;2023-05-14T04:36:31;23.60;52.70
34640;DHT22;22600;48.186;11.526;2023-05-14T04:38:57;23.60;52.70
34640;DHT22;22600;48.186;11.526;2023-05-14T04:41:22;23.50;52.60
34640;DHT22;22600;48.186;11.526;2023-05-14T04:43:48;23.60;52.60
34640;DHT22;22600;48.186;11.526;2023-05-14T04:46:14;26.00;53.90
34640;DHT22;22600;48.186;11.526;2023-05-14T04:48:39;23.50;52.50
34640;DHT22;22600;48.186;11.526;2023-05-14T04:51:05;23.60;52.60
34640;DHT22;22600;48.186;11.526;2023-05-14T04:53:30;23.50;52.50
34640;DHT22;22600;48.186;11.526;2023-05-14T04:55:56;23.50;52.40
34640;DHT22;22600;48.186;11.526;2023-05-14T04:58:21;23.50;52.40
34640;DHT22;22600;48.186;11.526;2023-05-14T05:00:48;23.50;52.60
34640;DHT22;22600;48.186;11.526;2023-05-14T05:03:14;23.50;52.60
34640;DHT22;22600;48.186;11.526;2023-05-14T05:05:39;23.50;52.60
34640;DHT22;22600;48.186;11.526;2023-05-14T05:08:05;23.60;52.60
34640;DHT22;22600;48.186;11.526;2023-05-14T05:10:30;23.50;52.60
34640;DHT22;22600;48.186;11.526;2023-05-14T05:12:56;23.50;52.50
34640;DHT22;22600;48.186;11.526;2023-05-14T05:15:21;23.50;52.40
34640;DHT22;22600;48.186;11.526;2023-05-14T05:17:47;23.50;52.50
34640;DHT22;22600;48.186;11.526;2023-05-14T05:20:12;24.70;53.10
34640;DHT22;22600;48.186;11.526;2023-05-14T05:22:38;23.50;52.60
34640;DHT22;22600;48.186;11.526;2023-05-14T05:25:03;23.50;52.50
34640;DHT22;22600;48.186;11.526;2023-05-14T05:27:30;23.50;52.40
34640;DHT22;22600;48.186;11.526;2023-05-14T05:29:56;23.50;52.40
34640;DHT22;22600;48.186;11.526;2023-05-14T05:32:22;23.50;52.50
34640;DHT22;22600;48.186;11.526;2023-05-14T05:34:47;23.60;52.60
34640;DHT22;22600;48.186;11.526;2023-05-14T05:37:13;26.90;54.50
34640;DHT22;22600;48.186;11.526;2023-05-14T05:39:39;23.50;52.60
34640;DHT22;22600;48.186;11.526;2023-05-14T05:42:04;23.50;52.60
34640;DHT22;22600;48.186;11.526;2023-05-14T05:44:30;23.50;52.60
34640;DHT22;22600;48.186;11.526;2023-05-14T05:46:55;23.70;52.80
34640;DHT22;22600;48.186;11.526;2023-05-14T05:49:21;23.60;52.80
34640;DHT22;22600;48.186;11.526;2023-05-14T05:51:47;23.60;52.80
34640;DHT22;22600;48.186;11.526;2023-05-14T05:54:12;25.90;53.90
34640;DHT22;22600;48.186;11.526;2023-05-14T05:56:38;23.60;52.60
34640;DHT22;22600;48.186;11.526;2023-05-14T05:59:03;23.50;52.70
34640;DHT22;22600;48.186;11.526;2023-05-14T06:01:29;23.50;52.80
34640;DHT22;22600;48.186;11.526;2023-05-14T06:03:55;23.50;52.70
34640;DHT22;22600;48.186;11.526;2023-05-14T06:06:20;23.50;52.70
34640;DHT22;22600;48.186;11.526;2023-05-14T06:08:46;23.50;52.60
34640;DHT22;22600;48.186;11.526;2023-05-14T06:11:11;23.50;52.60
34640;DHT22;22600;48.186;11.526;2023-05-14T06:13:37;23.60;52.60
34640;DHT22;22600;48.186;11.526;2023-05-14T06:16:02;23.50;52.40
34640;DHT22;22600;48.186;11.526;2023-05-14T06:18:28;23.50;52.40
34640;DHT22;22600;48.186;11.526;2023-05-14T06:20:53;23.50;52.50
34640;DHT22;22600;48.186;11.526;2023-05-14T06:23:20;23.50;52.40
34640;DHT22;22600;48.186;11.526;2023-05-14T06:25:48;23.60;52.50
34640;DHT22;22600;48.186;11.526;2023-05-14T06:28:14;23.50;52.50
34640;DHT22;22600;48.186;11.526;2023-05-14T06:30:39;23.50;52.50
34640;DHT22;22600;48.186;11.526;2023-05-14T06:33:05;23.50;52.40
34640;DHT22;22600;48.186;11.526;2023-05-14T06:35:31;23.50;52.40
34640;DHT22;22600;48.186;11.526;2023-05-14T06:37:56;23.50;52.40
34640;DHT22;22600;48.186;11.526;2023-05-14T06:40:22;23.50;52.40
34640;DHT22;22600;48.186;11.526;2023-05-14T06:42:47;23.50;52.40
34640;DHT22;22600;48.186;11.526;2023-05-14T06:45:12;23.50;52.40
34640;DHT22;22600;48.186;11.526;2023-05-14T06:47:38;23.50;52.40
34640;DHT22;22600;48.186;11.526;2023-05-14T06:50:03;23.50;52.40
34640;DHT22;22600;48.186;11.526;2023-05-14T06:52:29;23.50;52.40
34640;DHT22;22600;48.186;11.526;2023-05-14T06:54:55;23.50;52.40
34640;DHT22;22600;48.186;11.526;2023-05-14T06:57:20;23.50;52.40
34640;DHT22;22600;48.186;11.526;2023-05-14T06:59:46;23.50;53.00
34640;DHT22;22600;48.186;11.526;2023-05-14T07:02:11;25.30;53.20
34640;DHT22;22600;48.186;11.526;2023-05-14T07:04:37;23.50;52.40
34640;DHT22;22600;48.186;11.526;2023-05-14T07:07:02;23.50;52.40
34640;DHT22;22600;48.186;11.526;2023-05-14T07:09:28;23.50;52.30
34640;DHT22;22600;48.186;11.526;2023-05-14T07:11:53;23.50;52.30
34640;DHT22;22600;48.186;11.526;2023-05-14T07:14:19;23.50;52.30
34640;DHT22;22600;48.186;11.526;2023-05-14T07:16:44;23.50;52.30
34640;DHT22;22600;48.186;11.526;2023-05-14T07:19:11;23.50;52.20
34640;DHT22;22600;48.186;11.526;2023-05-14T07:21:36;23.40;52.20
34640;DHT22;22600;48.186;11.526;2023-05-14T07:24:02;23.50;52.20
34640;DHT22;22600;48.186;11.526;2023-05-14T07:26:27;23.50;52.30
34640;DHT22;22600;48.186;11.526;2023-05-14T07:28:53;23.50;52.20
34640;DHT22;22600;48.186;11.526;2023-05-14T07:31:18;23.50;52.20
34640;DHT22;22600;48.186;11.526;2023-05-14T07:33:44;23.40;52.20
34640;DHT22;22600;48.186;11.526;2023-05-14T07:36:10;26.30;53.70
34640;DHT22;22600;48.186;11.526;2023-05-14T07:38:35;23.40;52.00
34640;DHT22;22600;48.186;11.526;2023-05-14T07:41:01;23.50;52.10
34640;DHT22;22600;48.186;11.526;2023-05-14T07:43:27;23.50;52.10
34640;DHT22;22600;48.186;11.526;2023-05-14T07:45:52;23.50;52.10
34640;DHT22;22600;48.186;11.526;2023-05-14T07:48:18;21.50;51.10
34640;DHT22;22600;48.186;11.526;2023-05-14T07:50:43;23.30;52.00
34640;DHT22;22600;48.186;11.526;2023-05-14T07:53:09;25.80;53.30
34640;DHT22;22600;48.186;11.526;2023-05-14T07:55:35;23.40;52.00
34640;DHT22;22600;48.186;11.526;2023-05-14T07:58:00;23.60;52.10
34640;DHT22;22600;48.186;11.526;2023-05-14T08:00:26;23.40;52.00
34640;DHT22;22600;48.186;11.526;2023-05-14T08:02:51;23.40;52.10
34640;DHT22;22600;48.186;11.526;2023-05-14T08:05:17;23.40;52.00
34640;DHT22;22600;48.186;11.526;2023-05-14T08:07:43;23.40;52.00
34640;DHT22;22600;48.186;11.526;2023-05-14T08:10:08;23.40;52.00
34640;DHT22;22600;48.186;11.526;2023-05-14T08:12:34;23.50;52.10
34640;DHT22;22600;48.186;11.526;2023-05-14T08:14:59;23.50;52.10
34640;DHT22;22600;48.186;11.526;2023-05-14T08:17:24;23.40;52.00
34640;DHT22;22600;48.186;11.526;2023-05-14T08:19:50;25.40;53.00
34640;DHT22;22600;48.186;11.526;2023-05-14T08:22:15;23.40;52.00
34640;DHT22;22600;48.186;11.526;2023-05-14T08:24:41;23.40;52.00
34640;DHT22;22600;48.186;11.526;2023-05-14T08:27:07;26.30;53.60
34640;DHT22;22600;48.186;11.526;2023-05-14T08:29:33;23.40;52.00
34640;DHT22;22600;48.186;11.526;2023-05-14T08:31:58;23.40;52.00
34640;DHT22;22600;48.186;11.526;2023-05-14T08:34:24;23.40;51.90
34640;DHT22;22600;48.186;11.526;2023-05-14T08:36:50;23.40;51.80
34640;DHT22;22600;48.186;11.526;2023-05-14T08:39:15;23.40;51.80
34640;DHT22;22600;48.186;11.526;2023-05-14T08:41:41;23.40;51.80
34640;DHT22;22600;48.186;11.526;2023-05-14T08:44:17;23.80;52.00
34640;DHT22;22600;48.186;11.526;2023-05-14T08:46:43;23.40;51.70
34640;DHT22;22600;48.186;11.526;2023-05-14T08:49:14;23.40;51.80
34640;DHT22;22600;48.186;11.526;2023-05-14T08:51:43;23.40;51.70
34640;DHT22;22600;48.186;11.526;2023-05-14T08:54:10;23.50;51.80
34640;DHT22;22600;48.186;11.526;2023-05-14T08:56:38;23.30;51.70
34640;DHT22;22600;48.186;11.526;2023-05-14T08:59:04;23.40;51.70
34640;DHT22;22600;48.186;11.526;2023-05-14T09:01:30;23.40;51.70
34640;DHT22;22600;48.186;11.526;2023-05-14T09:03:55;23.40;51.70
34640;DHT22;22600;48.186;11.526;2023-05-14T09:06:22;23.40;51.70
34640;DHT22;22600;48.186;11.526;2023-05-14T09:08:48;23.40;51.60
34640;DHT22;22600;48.186;11.526;2023-05-14T09:11:13;23.40;51.60
34640;DHT22;22600;48.186;11.526;2023-05-14T09:13:39;23.40;51.60
34640;DHT22;22600;48.186;11.526;2023-05-14T09:16:05;23.40;51.60
34640;DHT22;22600;48.186;11.526;2023-05-14T09:18:30;23.40;51.60
34640;DHT22;22600;48.186;11.526;2023-05-14T09:20:56;23.50;51.60
34640;DHT22;22600;48.186;11.526;2023-05-14T09:23:24;23.40;51.60
34640;DHT22;22600;48.186;11.526;2023-05-14T09:25:49;23.40;51.60
34640;DHT22;22600;48.186;11.526;2023-05-14T09:28:15;23.40;51.60
34640;DHT22;22600;48.186;11.526;2023-05-14T09:30:41;23.40;51.60
34640;DHT22;22600;48.186;11.526;2023-05-14T09:33:06;23.40;51.60
34640;DHT22;22600;48.186;11.526;2023-05-14T09:35:34;23.40;51.50
34640;DHT22;22600;48.186;11.526;2023-05-14T09:38:04;23.40;51.50
34640;DHT22;22600;48.186;11.526;2023-05-14T09:40:29;23.40;51.40
34640;DHT22;22600;48.186;11.526;2023-05-14T09:42:55;23.40;51.40
34640;DHT22;22600;48.186;11.526;2023-05-14T09:45:20;23.40;51.40
34640;DHT22;22600;48.186;11.526;2023-05-14T09:47:47;23.40;51.40
34640;DHT22;22600;48.186;11.526;2023-05-14T09:50:12;23.40;51.40
34640;DHT22;22600;48.186;11.526;2023-05-14T09:52:38;26.80;53.30
34640;DHT22;22600;48.186;11.526;2023-05-14T09:55:03;23.40;51.40
34640;DHT22;22600;48.186;11.526;2023-05-14T09:57:29;23.40;51.30
34640;DHT22;22600;48.186;11.526;2023-05-14T09:59:55;23.40;51.30
34640;DHT22;22600;48.186;11.526;2023-05-14T10:02:21;23.40;51.40
34640;DHT22;22600;48.186;11.526;2023-05-14T10:04:51;23.40;51.30
34640;DHT22;22600;48.186;11.526;2023-05-14T10:07:18;23.40;51.30
34640;DHT22;22600;48.186;11.526;2023-05-14T10:09:45;25.90;52.50
34640;DHT22;22600;48.186;11.526;2023-05-14T10:12:11;23.40;51.20
34640;DHT22;22600;48.186;11.526;2023-05-14T10:14:42;23.40;51.20
34640;DHT22;22600;48.186;11.526;2023-05-14T10:17:11;23.40;51.70
34640;DHT22;22600;48.186;11.526;2023-05-14T10:19:44;23.40;51.20
34640;DHT22;22600;48.186;11.526;2023-05-14T10:22:11;23.30;51.10
34640;DHT22;22600;48.186;11.526;2023-05-14T10:24:39;23.40;51.30
34640;DHT22;22600;48.186;11.526;2023-05-14T10:27:04;23.40;51.30
34640;DHT22;22600;48.186;11.526;2023-05-14T10:29:34;23.40;51.20
34640;DHT22;22600;48.186;11.526;2023-05-14T10:32:03;23.40;51.20
34640;DHT22;22600;48.186;11.526;2023-05-14T10:34:32;23.40;51.20
34640;DHT22;22600;48.186;11.526;2023-05-14T10:36:59;23.40;51.10
34640;DHT22;22600;48.186;11.526;2023-05-14T10:42:10;23.40;51.20
34640;DHT22;22600;48.186;11.526;2023-05-14T10:44:36;23.40;51.10
34640;DHT22;22600;48.186;11.526;2023-05-14T10:47:05;23.40;51.10
34640;DHT22;22600;48.186;11.526;2023-05-14T10:49:32;23.40;51.60
34640;DHT22;22600;48.186;11.526;2023-05-14T10:51:58;23.40;51.10
34640;DHT22;22600;48.186;11.526;2023-05-14T10:54:23;23.40;51.00
34640;DHT22;22600;48.186;11.526;2023-05-14T10:56:51;23.40;51.10
34640;DHT22;22600;48.186;11.526;2023-05-14T10:59:17;26.20;52.50
34640;DHT22;22600;48.186;11.526;2023-05-14T11:01:44;23.40;51.00
34640;DHT22;22600;48.186;11.526;2023-05-14T11:04:16;23.30;50.90
34640;DHT22;22600;48.186;11.526;2023-05-14T11:06:42;23.40;51.00
34640;DHT22;22600;48.186;11.526;2023-05-14T11:09:08;23.40;51.00
34640;DHT22;22600;48.186;11.526;2023-05-14T11:11:34;23.40;51.00
34640;DHT22;22600;48.186;11.526;2023-05-14T11:14:00;23.40;50.90
34640;DHT22;22600;48.186;11.526;2023-05-14T11:16:26;24.00;51.20
34640;DHT22;22600;48.186;11.526;2023-05-14T11:19:01;23.40;50.90
34640;DHT22;22600;48.186;11.526;2023-05-14T11:21:28;23.30;50.80
34640;DHT22;22600;48.186;11.526;2023-05-14T11:23:53;23.40;50.90
34640;DHT22;22600;48.186;11.526;2023-05-14T11:26:19;23.40;50.80
34640;DHT22;22600;48.186;11.526;2023-05-14T11:28:44;23.40;50.80
34640;DHT22;22600;48.186;11.526;2023-05-14T11:31:10;23.40;50.70
34640;DHT22;22600;48.186;11.526;2023-05-14T11:33:36;23.30;50.70
34640;DHT22;22600;48.186;11.526;2023-05-14T11:36:02;23.40;50.70
34640;DHT22;22600;48.186;11.526;2023-05-14T11:38:28;23.40;50.70
34640;DHT22;22600;48.186;11.526;2023-05-14T11:40:54;23.40;50.70
34640;DHT22;22600;48.186;11.526;2023-05-14T11:43:20;23.50;50.80
34640;DHT22;22600;48.186;11.526;2023-05-14T11:45:48;23.40;50.70
34640;DHT22;22600;48.186;11.526;2023-05-14T11:48:14;23.40;50.70
34640;DHT22;22600;48.186;11.526;2023-05-14T11:50:39;25.90;52.00
34640;DHT22;22600;48.186;11.526;2023-05-14T11:53:05;23.30;50.60
34640;DHT22;22600;48.186;11.526;2023-05-14T11:55:32;23.40;50.60
34640;DHT22;22600;48.186;11.526;2023-05-14T11:57:58;23.30;50.50
34640;DHT22;22600;48.186;11.526;2023-05-14T12:00:25;23.40;50.50
34640;DHT22;22600;48.186;11.526;2023-05-14T12:02:50;23.30;50.50
34640;DHT22;22600;48.186;11.526;2023-05-14T12:05:16;23.40;50.50
34640;DHT22;22600;48.186;11.526;2023-05-14T12:07:43;23.40;50.60
34640;DHT22;22600;48.186;11.526;2023-05-14T12:10:10;23.40;51.20
34640;DHT22;22600;48.186;11.526;2023-05-14T12:12:36;23.40;50.60
34640;DHT22;22600;48.186;11.526;2023-05-14T12:15:01;23.40;50.60
34640;DHT22;22600;48.186;11.526;2023-05-14T12:17:34;23.40;50.50
34640;DHT22;22600;48.186;11.526;2023-05-14T12:20:01;23.40;50.50
34640;DHT22;22600;48.186;11.526;2023-05-14T12:22:28;23.40;50.50
34640;DHT22;22600;48.186;11.526;2023-05-14T12:24:54;23.40;50.40
34640;DHT22;22600;48.186;11.526;2023-05-14T12:27:23;23.40;50.40
34640;DHT22;22600;48.186;11.526;2023-05-14T12:29:58;23.40;50.90
34640;DHT22;22600;48.186;11.526;2023-05-14T12:32:24;23.40;50.50
34640;DHT22;22600;48.186;11.526;2023-05-14T12:34:50;23.40;50.50
34640;DHT22;22600;48.186;11.526;2023-05-14T12:37:15;23.40;50.40
34640;DHT22;22600;48.186;11.526;2023-05-14T12:39:42;23.40;50.40
34640;DHT22;22600;48.186;11.526;2023-05-14T12:42:08;26.10;51.90
34640;DHT22;22600;48.186;11.526;2023-05-14T12:44:33;23.40;50.40
34640;DHT22;22600;48.186;11.526;2023-05-14T12:46:59;23.40;50.40
34640;DHT22;22600;48.186;11.526;2023-05-14T12:49:24;23.40;50.40
34640;DHT22;22600;48.186;11.526;2023-05-14T12:51:50;23.40;50.30
34640;DHT22;22600;48.186;11.526;2023-05-14T12:54:15;23.40;50.30
34640;DHT22;22600;48.186;11.526;2023-05-14T12:56:41;23.40;50.30
34640;DHT22;22600;48.186;11.526;2023-05-14T12:59:07;25.90;51.50
34640;DHT22;22600;48.186;11.526;2023-05-14T13:01:33;23.40;50.20
34640;DHT22;22600;48.186;11.526;2023-05-14T13:03:59;23.40;50.10
34640;DHT22;22600;48.186;11.526;2023-05-14T13:06:24;23.40;50.00
34640;DHT22;22600;48.186;11.526;2023-05-14T13:08:50;23.40;50.00
34640;DHT22;22600;48.186;11.526;2023-05-14T13:11:15;23.40;50.10
34640;DHT22;22600;48.186;11.526;2023-05-14T13:13:40;23.40;50.10
34640;DHT22;22600;48.186;11.526;2023-05-14T13:16:06;26.90;52.10
34640;DHT22;22600;48.186;11.526;2023-05-14T13:18:31;23.40;50.10
34640;DHT22;22600;48.186;11.526;2023-05-14T13:20:57;23.40;50.10
34640;DHT22;22600;48.186;11.526;2023-05-14T13:23:22;23.30;50.00
34640;DHT22;22600;48.186;11.526;2023-05-14T13:25:48;23.40;50.10
34640;DHT22;22600;48.186;11.526;2023-05-14T13:28:13;23.40;50.10
34640;DHT22;22600;48.186;11.526;2023-05-14T13:30:39;23.40;50.00
34640;DHT22;22600;48.186;11.526;2023-05-14T13:33:04;25.00;50.80
34640;DHT22;22600;48.186;11.526;2023-05-14T13:35:30;23.40;50.00
34640;DHT22;22600;48.186;11.526;2023-05-14T13:37:55;27.00;52.10
34640;DHT22;22600;48.186;11.526;2023-05-14T13:40:21;23.40;50.00
34640;DHT22;22600;48.186;11.526;2023-05-14T13:42:46;23.40;50.00
34640;DHT22;22600;48.186;11.526;2023-05-14T13:45:12;23.40;50.10
34640;DHT22;22600;48.186;11.526;2023-05-14T13:47:37;23.40;50.10
34640;DHT22;22600;48.186;11.526;2023-05-14T13:50:03;24.60;50.70
34640;DHT22;22600;48.186;11.526;2023-05-14T13:52:28;23.40;50.00
34640;DHT22;22600;48.186;11.526;2023-05-14T13:54:54;23.40;50.10
34640;DHT22;22600;48.186;11.526;2023-05-14T13:57:20;23.40;50.10
34640;DHT22;22600;48.186;11.526;2023-05-14T13:59:46;23.40;50.10
34640;DHT22;22600;48.186;11.526;2023-05-14T14:02:12;23.40;50.00
34640;DHT22;22600;48.186;11.526;2023-05-14T14:04:37;23.40;50.00
34640;DHT22;22600;48.186;11.526;2023-05-14T14:07:03;26.00;51.40
34640;DHT22;22600;48.186;11.526;2023-05-14T14:09:28;23.40;50.10
34640;DHT22;22600;48.186;11.526;2023-05-14T14:11:59;23.30;50.00
34640;DHT22;22600;48.186;11.526;2023-05-14T14:14:25;23.40;50.00
34640;DHT22;22600;48.186;11.526;2023-05-14T14:16:50;23.40;50.00
34640;DHT22;22600;48.186;11.526;2023-05-14T14:19:16;23.40;50.00
34640;DHT22;22600;48.186;11.526;2023-05-14T14:21:41;23.40;50.00
34640;DHT22;22600;48.186;11.526;2023-05-14T14:24:07;24.90;50.70
34640;DHT22;22600;48.186;11.526;2023-05-14T14:26:32;23.30;50.00
34640;DHT22;22600;48.186;11.526;2023-05-14T14:28:58;23.40;50.00
34640;DHT22;22600;48.186;11.526;2023-05-14T14:31:23;23.30;50.00
34640;DHT22;22600;48.186;11.526;2023-05-14T14:33:49;23.40;50.00
34640;DHT22;22600;48.186;11.526;2023-05-14T14:36:14;23.40;50.00
34640;DHT22;22600;48.186;11.526;2023-05-14T14:38:39;23.40;49.90
34640;DHT22;22600;48.186;11.526;2023-05-14T14:41:05;23.40;50.00
34640;DHT22;22600;48.186;11.526;2023-05-14T14:43:35;23.40;50.00
34640;DHT22;22600;48.186;11.526;2023-05-14T14:46:00;23.40;50.00
34640;DHT22;22600;48.186;11.526;2023-05-14T14:50:52;23.40;49.90
34640;DHT22;22600;48.186;11.526;2023-05-14T14:53:19;23.40;49.90
34640;DHT22;22600;48.186;11.526;2023-05-14T14:55:44;23.40;50.00
34640;DHT22;22600;48.186;11.526;2023-05-14T14:58:10;23.40;50.00
34640;DHT22;22600;48.186;11.526;2023-05-14T15:00:36;23.40;50.00
34640;DHT22;22600;48.186;11.526;2023-05-14T15:03:01;23.40;50.00
34640;DHT22;22600;48.186;11.526;2023-05-14T15:05:27;23.40;50.00
34640;DHT22;22600;48.186;11.526;2023-05-14T15:07:53;23.40;50.00
34640;DHT22;22600;48.186;11.526;2023-05-14T15:10:18;23.40;50.10
34640;DHT22;22600;48.186;11.526;2023-05-14T15:12:44;23.40;50.00
34640;DHT22;22600;48.186;11.526;2023-05-14T15:15:09;24.60;50.60
34640;DHT22;22600;48.186;11.526;2023-05-14T15:17:35;23.40;50.00
34640;DHT22;22600;48.186;11.526;2023-05-14T15:20:00;23.40;50.00